createdAt,value
2018-12-04T00:00:24.072Z,9.4
2018-12-04T00:05:24.736Z,9.5
2018-12-04T00:10:24.451Z,9.5
2018-12-04T00:15:24.397Z,9.5
2018-12-04T00:20:24.760Z,9.6
2018-12-04T00:25:24.380Z,9.4
2018-12-04T00:30:24.577Z,9.5
2018-12-04T00:35:24.213Z,9.4
2018-12-04T00:40:24.363Z,9.3
2018-12-04T00:45:24.351Z,9.3
2018-12-04T00:50:24.483Z,9.2
2018-12-04T00:55:24.042Z,9.1
2018-12-04T01:00:24.023Z,8.9
2018-12-04T01:05:24.536Z,8.8
2018-12-04T01:10:24.688Z,8.8
2018-12-04T01:15:24.187Z,8.8
2018-12-04T01:20:24.135Z,8.7
2018-12-04T01:25:24.393Z,8.7
2018-12-04T01:30:24.482Z,9
2018-12-04T01:35:24.144Z,8.9
2018-12-04T01:40:24.054Z,9
2018-12-04T01:45:24.279Z,8.9
2018-12-04T01:50:24.257Z,8.9
2018-12-04T01:55:24.110Z,8.9
2018-12-04T02:00:25.318Z,8.7
2018-12-04T02:05:24.313Z,8.7
2018-12-04T02:10:24.532Z,8.6
2018-12-04T02:15:25.653Z,8.5
2018-12-04T02:20:24.834Z,8.4
2018-12-04T02:25:25.528Z,8.3
2018-12-04T02:30:33.066Z,8.1
2018-12-04T02:35:24.233Z,8
2018-12-04T02:40:24.208Z,7.9
2018-12-04T02:45:24.414Z,7.8
2018-12-04T02:50:23.996Z,7.7
2018-12-04T02:55:24.046Z,7.6
2018-12-04T03:00:24.535Z,7.6
2018-12-04T03:05:24.167Z,7.6
2018-12-04T03:10:24.190Z,7.7
2018-12-04T03:15:24.233Z,7.8
2018-12-04T03:20:24.343Z,7.8
2018-12-04T03:25:24.530Z,8
2018-12-04T03:30:24.256Z,7.8
2018-12-04T03:35:24.074Z,7.7
2018-12-04T03:40:24.445Z,7.8
2018-12-04T03:45:24.037Z,7.7
2018-12-04T03:50:24.356Z,7.7
2018-12-04T03:55:23.803Z,7.7
2018-12-04T04:00:24.722Z,7.5
2018-12-04T04:05:23.735Z,7.4
2018-12-04T04:10:24.144Z,7.3
2018-12-04T04:15:23.945Z,7.2
2018-12-04T04:20:24.897Z,7.1
2018-12-04T04:25:23.859Z,7
2018-12-04T04:30:24.149Z,7.1
2018-12-04T04:35:24.025Z,7
2018-12-04T04:40:23.856Z,7
2018-12-04T04:45:23.825Z,6.9
2018-12-04T04:50:24.482Z,6.8
2018-12-04T04:55:23.854Z,6.8
2018-12-04T05:00:24.258Z,6.7
2018-12-04T05:05:23.881Z,6.7
2018-12-04T05:10:24.014Z,6.6
2018-12-04T05:15:24.048Z,6.6
2018-12-04T05:20:23.847Z,6.5
2018-12-04T05:25:23.774Z,6.5
2018-12-04T05:30:24.878Z,6.7
2018-12-04T05:35:24.388Z,6.6
2018-12-04T05:40:23.979Z,7.1
2018-12-04T05:45:23.790Z,6.9
2018-12-04T05:50:23.835Z,7
2018-12-04T05:55:23.661Z,6.9
2018-12-04T06:00:23.965Z,6.8
2018-12-04T06:05:23.678Z,7
2018-12-04T06:10:23.958Z,6.9
2018-12-04T06:15:23.546Z,6.7
2018-12-04T06:20:23.645Z,6.7
2018-12-04T06:25:23.768Z,6.6
2018-12-04T06:30:23.583Z,6.4
2018-12-04T06:35:23.885Z,6.4
2018-12-04T06:40:23.948Z,6.3
2018-12-04T06:45:23.435Z,6.6
2018-12-04T06:50:23.663Z,6.4
2018-12-04T06:55:23.891Z,6.4
2018-12-04T07:00:23.851Z,6.3
2018-12-04T07:05:24.244Z,6.2
2018-12-04T07:10:23.978Z,6.2
2018-12-04T07:15:24.104Z,6.4
2018-12-04T07:20:23.650Z,6.4
2018-12-04T07:25:23.701Z,6.3
2018-12-04T07:30:23.810Z,6.3
2018-12-04T07:35:24.006Z,6.1
2018-12-04T07:40:23.531Z,6
2018-12-04T07:45:23.467Z,5.9
2018-12-04T07:50:23.485Z,5.9
2018-12-04T07:55:23.790Z,5.9
2018-12-04T08:00:24.001Z,5.8
2018-12-04T08:05:23.836Z,5.8
2018-12-04T08:10:23.558Z,5.9
2018-12-04T08:15:23.776Z,6.1
2018-12-04T08:20:23.462Z,6.2
2018-12-04T08:25:23.618Z,6.4
2018-12-04T08:30:23.667Z,6.6
2018-12-04T08:35:23.679Z,6.4
2018-12-04T08:40:23.612Z,6.3
2018-12-04T08:45:23.208Z,6.3
2018-12-04T08:50:23.780Z,6.3
2018-12-04T08:55:23.584Z,6.3
2018-12-04T09:00:23.587Z,6.7
2018-12-04T09:05:23.414Z,6.9
2018-12-04T09:10:23.127Z,7.2
2018-12-04T09:15:23.302Z,7.3
2018-12-04T09:20:23.298Z,7.2
2018-12-04T09:25:23.135Z,7.4
2018-12-04T09:30:23.455Z,7.4
2018-12-04T09:35:23.366Z,7.6
2018-12-04T09:40:23.144Z,7.7
2018-12-04T09:45:23.162Z,7.9
2018-12-04T09:50:23.273Z,8
2018-12-04T09:55:23.461Z,8.2
2018-12-04T10:00:23.088Z,8.4
2018-12-04T10:05:23.316Z,8.5
2018-12-04T10:10:23.207Z,8.6
2018-12-04T10:15:23.306Z,8.8
2018-12-04T10:20:23.098Z,9
2018-12-04T10:25:23.244Z,9.1
2018-12-04T10:30:23.240Z,9.1
2018-12-04T10:35:23.203Z,9.3
2018-12-04T10:40:23.279Z,9.3
2018-12-04T10:45:23.121Z,9.4
2018-12-04T10:50:23.194Z,9.8
2018-12-04T10:55:23.279Z,10.2
2018-12-04T11:00:23.460Z,10.7
2018-12-04T11:05:23.131Z,10.2
2018-12-04T11:10:22.942Z,9.6
2018-12-04T11:15:23.301Z,9
2018-12-04T11:20:23.245Z,8.2
2018-12-04T11:25:23.032Z,8
2018-12-04T11:30:23.296Z,7.9
2018-12-04T11:35:23.189Z,7.8
2018-12-04T11:40:23.011Z,7.9
2018-12-04T11:45:23.209Z,8.4
2018-12-04T11:50:23.339Z,8.8
2018-12-04T11:55:23.040Z,8.9
2018-12-04T12:00:23.316Z,9.1
2018-12-04T12:05:22.921Z,9.4
2018-12-04T12:10:22.958Z,9.8
2018-12-04T12:15:23.141Z,10
2018-12-04T12:20:23.045Z,10.2
2018-12-04T12:25:23.207Z,10
2018-12-04T12:30:23.112Z,9.6
2018-12-04T12:35:22.955Z,9.5
2018-12-04T12:40:22.965Z,9.5
2018-12-04T12:45:23.144Z,9.3
2018-12-04T12:50:23.164Z,9.2
2018-12-04T12:55:23.145Z,9.3
2018-12-04T13:00:23.025Z,9.2
2018-12-04T13:05:23.113Z,9.3
2018-12-04T13:10:22.934Z,9.3
2018-12-04T13:15:23.027Z,9.3
2018-12-04T13:20:22.946Z,9.3
2018-12-04T13:25:23.061Z,9.2
2018-12-04T13:30:22.941Z,9.1
2018-12-04T13:35:23.005Z,9.1
2018-12-04T13:40:23.027Z,9.1
2018-12-04T13:45:23.081Z,9.1
2018-12-04T13:50:22.764Z,9
2018-12-04T13:55:22.999Z,9
2018-12-04T14:00:23.137Z,8.9
2018-12-04T14:05:22.965Z,8.9
2018-12-04T14:10:22.914Z,8.9
2018-12-04T14:15:22.763Z,9
2018-12-04T14:20:22.724Z,9
2018-12-04T14:25:22.996Z,8.9
2018-12-04T14:30:23.170Z,8.8
2018-12-04T14:35:22.891Z,8.7
2018-12-04T14:40:22.724Z,8.7
2018-12-04T14:45:22.697Z,8.6
2018-12-04T14:50:22.796Z,8.5
2018-12-04T14:55:23.192Z,8.4
2018-12-04T15:00:22.878Z,8.3
2018-12-04T15:05:22.677Z,8.1
2018-12-04T15:10:22.690Z,8
2018-12-04T15:15:22.788Z,7.9
2018-12-04T15:20:22.611Z,7.8
2018-12-04T15:25:22.646Z,7.7
2018-12-04T15:30:22.626Z,7.6
2018-12-04T15:35:22.572Z,7.5
2018-12-04T15:40:22.659Z,7.4
2018-12-04T15:45:22.649Z,7.3
